Time;durP1;ratioP1;P1;durP2;ratioP2;P2;SDS_P1;SDS_P2;PMS_P1;PMS_P2;Temp;Humidity;BMP_temperature;BMP_pressure;BME280_temperature;BME280_humidity;BME280_pressure;Samples;Min_cycle;Max_cycle;Signal;HPM_P1;HPM_P2
2022/01/22 00:00:54;;;;;;;0.30;0.30;;;5.80;99.90;6.40;103330.00;;;;5035708;28;20177;-63
2022/01/22 00:03:20;;;;;;;0.30;0.30;;;6.00;99.90;5.80;103326.00;;;;5034358;28;20233;-63
2022/01/22 00:05:47;;;;;;;1.87;1.77;;;6.00;99.90;6.00;103322.00;;;;5035087;28;20190;-63
2022/01/22 00:08:15;;;;;;;1.03;1.03;;;6.00;99.90;5.90;103316.00;;;;5034408;28;20562;-63
2022/01/22 00:10:43;;;;;;;1.20;1.20;;;5.90;99.90;5.70;103310.00;;;;5034925;28;20256;-62
2022/01/22 00:15:48;;;;;;;0.37;0.37;;;5.70;99.90;5.30;103256.00;;;;5035768;28;20190;-62
2022/01/22 00:18:19;;;;;;;0.80;0.80;;;5.60;99.90;5.30;103295.00;;;;5050651;28;20231;-63
2022/01/22 00:20:46;;;;;;;0.60;0.60;;;5.60;99.90;5.60;103308.00;;;;5035549;28;20645;-63
2022/01/22 00:23:15;;;;;;;1.17;1.07;;;5.70;99.90;5.40;103307.00;;;;5034211;28;20644;-62
2022/01/22 00:25:41;;;;;;;0.87;0.87;;;5.60;99.90;5.20;103310.00;;;;5035132;28;20180;-63
2022/01/22 00:28:07;;;;;;;1.43;1.40;;;5.60;99.90;5.60;103309.00;;;;5034727;28;20177;-62
2022/01/22 00:30:33;;;;;;;4.90;3.70;;;5.70;99.90;6.10;103284.00;;;;5033631;28;20184;-63
2022/01/22 00:32:59;;;;;;;2.67;1.90;;;5.90;99.90;6.30;103292.00;;;;5034919;28;20215;-62
2022/01/22 00:35:25;;;;;;;1.83;1.57;;;6.20;99.90;6.40;103284.00;;;;5034542;28;20267;-63
2022/01/22 00:37:53;;;;;;;0.50;0.50;;;6.20;99.90;5.50;103241.00;;;;5049027;28;20193;-62
2022/01/22 00:40:21;;;;;;;1.50;1.40;;;6.00;99.90;5.90;103287.00;;;;5033621;28;20878;-63
2022/01/22 00:42:50;;;;;;;1.37;1.33;;;6.00;99.90;5.60;103282.00;;;;5050369;28;20197;-62
2022/01/22 00:45:17;;;;;;;2.80;2.30;;;5.90;99.90;5.90;103286.00;;;;5050705;28;20186;-62
2022/01/22 00:47:43;;;;;;;1.20;1.17;;;5.90;99.90;5.90;103234.00;;;;5050301;28;20269;-62
2022/01/22 00:50:14;;;;;;;0.30;0.30;;;6.00;99.90;5.60;103263.00;;;;5050290;28;20272;-62
2022/01/22 00:52:42;;;;;;;5.73;3.23;;;5.80;99.90;5.80;103255.00;;;;5034719;28;20226;-62
2022/01/22 00:55:09;;;;;;;0.50;0.50;;;5.80;99.90;5.80;103273.00;;;;5048858;28;20214;-62
2022/01/22 00:57:38;;;;;;;1.23;1.13;;;5.90;99.90;5.80;103277.00;;;;5034693;28;20185;-62
2022/01/22 01:00:08;;;;;;;0.70;0.70;;;5.90;99.90;5.50;103277.00;;;;5034460;28;20177;-62
2022/01/22 01:02:35;;;;;;;1.10;1.10;;;5.90;99.90;5.40;103269.00;;;;5033585;28;20282;-62
2022/01/22 01:05:05;;;;;;;0.40;0.40;;;5.70;99.90;5.50;103273.00;;;;5049558;28;20222;-62
2022/01/22 01:07:31;;;;;;;2.03;1.70;;;5.80;99.90;5.40;103268.00;;;;5049389;28;20183;-63
2022/01/22 01:09:59;;;;;;;0.30;0.30;;;5.80;99.90;5.30;103267.00;;;;5032942;28;20180;-62
2022/01/22 01:12:26;;;;;;;1.13;1.13;;;5.70;99.90;5.40;103266.00;;;;5034359;28;20342;-63
2022/01/22 01:15:19;;;;;;;4.17;2.40;;;5.70;99.90;6.00;103271.00;;;;5032852;28;20584;-63
2022/01/22 01:36:22;;;;;;;3.53;3.23;;;6.00;99.90;6.60;103270.00;;;;5033490;28;20185;-62
2022/01/22 01:38:56;;;;;;;3.47;2.37;;;6.30;99.90;5.90;103268.00;;;;5033998;28;20670;-62
2022/01/22 01:41:34;;;;;;;1.20;0.87;;;6.10;99.90;5.80;103235.00;;;;5033930;28;20180;-63
2022/01/22 01:44:00;;;;;;;0.57;0.57;;;6.10;99.90;5.80;103267.00;;;;5032876;28;20181;-62
2022/01/22 01:46:29;;;;;;;1.37;1.30;;;6.00;99.90;6.10;103265.00;;;;5032703;28;20170;-62
2022/01/22 01:48:55;;;;;;;0.53;0.53;;;6.00;99.90;6.20;103272.00;;;;5033507;28;20251;-62
2022/01/22 01:51:26;;;;;;;0.90;0.90;;;6.10;99.90;6.20;103284.00;;;;5033365;28;20647;-62
2022/01/22 01:54:02;;;;;;;0.33;0.33;;;6.20;99.90;5.80;103273.00;;;;5033145;28;20578;-63
2022/01/22 01:59:17;;;;;;;0.43;0.43;;;6.00;99.90;5.90;103277.00;;;;5032220;28;20251;-63
2022/01/22 02:01:44;;;;;;;1.03;0.90;;;6.00;99.90;5.90;103278.00;;;;5030763;28;20200;-62
2022/01/22 02:04:12;;;;;;;0.60;0.60;;;6.00;99.90;6.10;103270.00;;;;5033546;28;20195;-62
2022/01/22 02:06:39;;;;;;;2.50;2.27;;;6.10;99.90;6.20;103276.00;;;;5032121;28;20189;-62
2022/01/22 02:09:09;;;;;;;0.60;0.53;;;6.10;99.90;6.10;103282.00;;;;5033514;28;20266;-62
2022/01/22 02:11:36;;;;;;;1.13;0.67;;;6.20;99.90;5.90;103281.00;;;;5032109;28;20235;-62
2022/01/22 02:24:59;;;;;;;2.30;2.20;;;6.10;99.90;6.30;103233.00;;;;5033270;28;20192;-63
2022/01/22 02:27:25;;;;;;;1.23;1.23;;;6.20;99.90;6.40;103271.00;;;;5032802;28;20632;-63
2022/01/22 02:29:51;;;;;;;4.83;3.37;;;6.30;99.90;5.90;103262.00;;;;5033421;28;20183;-63
2022/01/22 02:35:18;;;;;;;0.27;0.27;;;6.00;99.90;5.60;103255.00;;;;5032854;28;20664;-62
2022/01/22 02:37:54;;;;;;;3.90;3.60;;;5.90;99.90;5.50;103267.00;;;;5032942;28;20197;-63
2022/01/22 02:40:27;;;;;;;1.50;1.43;;;5.90;99.90;6.00;103266.00;;;;5033197;28;20648;-62
2022/01/22 02:42:53;;;;;;;1.37;1.13;;;6.00;99.90;5.60;103266.00;;;;5032654;28;20637;-62
2022/01/22 02:45:22;;;;;;;0.40;0.40;;;5.90;99.90;5.40;103266.00;;;;5031063;28;20178;-63
2022/01/22 02:47:51;;;;;;;0.53;0.53;;;5.90;99.90;6.00;103229.00;;;;5032622;28;20178;-62
2022/01/22 02:50:21;;;;;;;1.90;1.47;;;6.00;99.90;6.10;103274.00;;;;5048655;28;20182;-62
2022/01/22 02:52:47;;;;;;;0.97;0.97;;;6.00;99.90;5.90;103267.00;;;;5032970;28;20210;-62
2022/01/22 02:55:14;;;;;;;3.20;3.00;;;6.00;99.90;6.10;103264.00;;;;5032318;28;20200;-62
2022/01/22 02:57:44;;;;;;;6.03;5.50;;;6.00;99.90;6.20;103272.00;;;;5032193;28;20173;-62
2022/01/22 03:00:16;;;;;;;2.90;1.90;;;6.10;99.90;6.10;103276.00;;;;5032119;28;20177;-62
2022/01/22 03:02:42;;;;;;;0.30;0.30;;;6.10;99.90;5.90;103277.00;;;;5031382;28;20190;-62
2022/01/22 03:05:09;;;;;;;7.23;3.60;;;6.10;99.90;6.10;103265.00;;;;5032820;28;20650;-62
2022/01/22 03:07:36;;;;;;;1.70;1.60;;;6.10;99.90;6.60;103237.00;;;;5032472;28;20166;-62
2022/01/22 03:10:07;;;;;;;1.90;1.50;;;6.30;99.90;6.20;103235.00;;;;5032930;28;20584;-62
2022/01/22 03:18:43;;;;;;;1.73;1.63;;;6.30;99.90;6.80;103296.00;;;;5032291;28;20549;-62
2022/01/22 03:27:17;;;;;;;1.80;1.70;;;6.60;99.90;6.60;103287.00;;;;5034360;28;20637;-63
2022/01/22 03:28:53;;;;;;;0.30;0.30;;;6.50;99.90;6.90;103296.00;;;;5036605;28;20197;-62
2022/01/22 03:31:19;;;;;;;0.30;0.30;;;6.60;99.90;7.40;103296.00;;;;5034142;28;20221;-62
2022/01/22 03:33:45;;;;;;;0.30;0.30;;;6.90;99.90;6.80;103303.00;;;;5036247;28;20177;-62
2022/01/22 03:36:11;;;;;;;1.60;1.50;;;6.80;99.90;6.90;103293.00;;;;5035553;28;20186;-62
2022/01/22 03:38:37;;;;;;;0.87;0.87;;;6.70;99.90;6.90;103287.00;;;;5036280;28;20282;-62
2022/01/22 03:41:04;;;;;;;0.87;0.87;;;6.70;99.90;6.10;103247.00;;;;5036058;28;20178;-62
2022/01/22 03:43:30;;;;;;;1.33;1.33;;;6.40;99.90;6.10;103243.00;;;;5035419;28;20187;-62
2022/01/22 03:45:55;;;;;;;1.53;1.43;;;6.30;99.90;6.90;103286.00;;;;5034378;28;20175;-62
2022/01/22 03:48:24;;;;;;;0.80;0.80;;;6.50;99.90;6.70;103284.00;;;;5035297;28;20186;-62
2022/01/22 03:50:50;;;;;;;5.20;0.63;;;6.60;99.90;6.10;103274.00;;;;5035717;28;20622;-62
2022/01/22 03:53:17;;;;;;;2.03;1.93;;;6.40;99.90;6.00;103283.00;;;;5035059;28;20217;-63
2022/01/22 03:55:59;;;;;;;3.37;3.17;;;6.30;99.90;6.00;103283.00;;;;5035294;28;20177;-63
2022/01/22 03:58:25;;;;;;;4.47;3.03;;;6.30;99.90;6.10;103280.00;;;;5035209;28;20184;-62
2022/01/22 04:01:02;;;;;;;1.67;1.57;;;6.40;99.90;6.70;103282.00;;;;5033972;28;20581;-62
2022/01/22 04:03:36;;;;;;;0.73;0.73;;;6.40;99.90;6.70;103275.00;;;;5035756;28;20182;-62
2022/01/22 04:08:38;;;;;;;1.03;1.03;;;6.50;99.90;6.90;103282.00;;;;5034983;28;20191;-63
2022/01/22 04:11:08;;;;;;;5.53;4.23;;;6.70;99.90;6.90;103276.00;;;;5035132;28;20268;-62
2022/01/22 04:13:35;;;;;;;3.57;2.97;;;6.70;99.90;6.50;103276.00;;;;5036002;28;20184;-63
2022/01/22 04:16:01;;;;;;;1.53;1.43;;;6.60;99.90;6.40;103265.00;;;;5034498;28;20183;-63
2022/01/22 04:26:53;;;;;;;0.83;0.83;;;6.80;99.90;7.20;103283.00;;;;5034658;28;20255;-62
2022/01/22 04:29:21;;;;;;;0.70;0.70;;;6.90;99.90;6.70;103272.00;;;;5035129;28;20265;-62
2022/01/22 04:31:49;;;;;;;4.80;1.03;;;6.90;99.90;6.90;103264.00;;;;5033791;28;20217;-62
2022/01/22 04:34:15;;;;;;;1.47;1.47;;;6.90;99.90;6.80;103256.00;;;;5035139;28;20272;-62
2022/01/22 04:36:42;;;;;;;5.40;4.03;;;6.70;99.90;6.60;103271.00;;;;5034490;28;20265;-62
2022/01/22 04:39:08;;;;;;;2.07;1.80;;;6.60;99.90;6.50;103264.00;;;;5034884;28;20178;-62
2022/01/22 04:41:37;;;;;;;1.47;1.47;;;6.60;99.90;6.80;103266.00;;;;5034938;28;20213;-62
2022/01/22 04:44:05;;;;;;;0.30;0.30;;;6.70;99.90;7.30;103270.00;;;;5034505;28;20659;-63
2022/01/22 04:49:18;;;;;;;1.37;1.37;;;7.20;99.90;7.70;103274.00;;;;5033936;28;20233;-63
2022/01/22 04:57:20;;;;;;;0.97;0.97;;;7.30;99.90;7.60;103277.00;;;;5034667;28;20699;-62
2022/01/22 04:59:46;;;;;;;1.60;1.50;;;7.40;99.90;7.00;103264.00;;;;5034702;28;20180;-62
2022/01/22 05:02:14;;;;;;;4.80;4.00;;;7.20;99.90;7.50;103269.00;;;;5034640;28;20536;-62
2022/01/22 05:04:40;;;;;;;0.83;0.83;;;7.20;99.90;7.60;103268.00;;;;5034427;28;20178;-62
2022/01/22 05:07:06;;;;;;;8.20;6.40;;;7.30;99.90;7.20;103226.00;;;;5033068;28;20552;-63
2022/01/22 05:09:32;;;;;;;3.73;3.53;;;7.10;99.90;6.70;103253.00;;;;5016922;28;20197;-62
2022/01/22 05:11:58;;;;;;;2.53;2.33;;;6.90;99.90;6.70;103259.00;;;;5034133;28;20213;-62
2022/01/22 05:14:25;;;;;;;3.87;2.80;;;6.80;99.90;6.70;103267.00;;;;5033061;28;20217;-62
2022/01/22 05:16:51;;;;;;;6.67;4.97;;;6.70;99.90;6.70;103262.00;;;;5034336;28;20181;-62
2022/01/22 05:22:54;;;;;;;7.50;5.10;;;6.70;99.90;6.30;103274.00;;;;5032762;28;20288;-62
2022/01/22 05:24:59;;;;;;;1.83;0.93;;;6.50;99.90;6.30;103271.00;;;;5033576;28;20186;-62
2022/01/22 05:28:16;;;;;;;1.37;1.37;;;6.50;99.90;6.50;103266.00;;;;5034337;28;20171;-62
2022/01/22 05:38:42;;;;;;;3.90;3.60;;;6.60;99.90;6.80;103278.00;;;;5032524;28;20202;-62
2022/01/22 05:41:08;;;;;;;3.83;3.50;;;6.70;99.90;6.50;103264.00;;;;5033228;28;20629;-62
2022/01/22 05:43:37;;;;;;;0.90;0.90;;;6.60;99.90;6.20;103271.00;;;;5034233;28;20209;-62
2022/01/22 05:46:02;;;;;;;4.83;3.70;;;6.50;99.90;6.70;103272.00;;;;5031995;28;20181;-62
2022/01/22 05:48:28;;;;;;;3.73;2.10;;;6.60;99.90;6.30;103247.00;;;;5033935;28;20180;-62
2022/01/22 05:50:59;;;;;;;3.63;2.30;;;6.70;99.90;6.60;103276.00;;;;5032709;28;20170;-63
2022/01/22 06:01:14;;;;;;;3.07;1.97;;;6.90;99.90;6.60;103291.00;;;;5033382;28;20192;-63
2022/01/22 06:03:40;;;;;;;1.23;1.23;;;6.80;99.90;6.90;103285.00;;;;5033461;28;20694;-62
2022/01/22 06:06:06;;;;;;;0.70;0.70;;;6.80;99.90;6.70;103283.00;;;;5031958;28;20190;-63
2022/01/22 06:08:41;;;;;;;5.03;4.57;;;6.90;99.90;6.90;103284.00;;;;5033779;28;20186;-63
2022/01/22 06:11:09;;;;;;;9.40;5.53;;;6.90;99.90;6.80;103290.00;;;;5033321;28;20184;-63
2022/01/22 06:13:46;;;;;;;3.20;2.67;;;6.80;99.90;7.10;103283.00;;;;5030918;28;20175;-62
2022/01/22 06:16:15;;;;;;;0.30;0.30;;;6.90;99.90;6.70;103287.00;;;;5032208;28;20189;-63
2022/01/22 06:18:42;;;;;;;1.63;1.53;;;6.90;99.90;6.90;103293.00;;;;5033378;28;20201;-63
2022/01/22 06:21:09;;;;;;;3.43;3.27;;;7.00;99.90;6.80;103293.00;;;;5033088;28;20181;-62
2022/01/22 06:23:36;;;;;;;1.07;0.97;;;6.90;99.90;7.20;103300.00;;;;5032927;28;20209;-63
2022/01/22 06:26:05;;;;;;;22.13;10.37;;;6.90;99.90;7.40;103309.00;;;;5032066;28;20182;-63
2022/01/22 06:28:32;;;;;;;0.77;0.77;;;7.10;99.90;7.60;103297.00;;;;5048832;28;20241;-63
2022/01/22 06:30:59;;;;;;;0.30;0.30;;;7.30;99.90;7.80;103305.00;;;;5032967;28;20657;-62
2022/01/22 06:33:25;;;;;;;4.03;1.13;;;7.40;99.90;8.00;103301.00;;;;5031748;28;20264;-63
2022/01/22 06:35:51;;;;;;;0.50;0.50;;;7.60;99.90;7.90;103307.00;;;;5031540;28;20168;-62
2022/01/22 06:38:18;;;;;;;0.97;0.97;;;7.70;99.90;7.70;103312.00;;;;5031349;28;20684;-62
2022/01/22 06:43:30;;;;;;;1.93;1.80;;;7.70;99.90;7.60;103313.00;;;;5033225;28;20221;-62
2022/01/22 06:45:56;;;;;;;4.13;3.73;;;7.60;99.90;7.70;103317.00;;;;5033067;28;20179;-62
2022/01/22 06:48:23;;;;;;;2.30;2.13;;;7.60;99.90;7.80;103309.00;;;;5032929;28;20208;-62
2022/01/22 06:50:49;;;;;;;5.10;4.67;;;7.60;99.90;7.50;103313.00;;;;5032509;28;20181;-62
2022/01/22 06:53:15;;;;;;;2.10;2.00;;;7.40;99.90;7.40;103309.00;;;;5032483;28;20201;-63
2022/01/22 06:55:51;;;;;;;1.37;1.30;;;7.40;99.90;7.50;103289.00;;;;5036875;28;20174;-62
2022/01/22 06:58:17;;;;;;;3.90;2.43;;;7.40;99.90;7.70;103321.00;;;;5035695;28;20208;-62
2022/01/22 07:00:43;;;;;;;3.50;2.20;;;7.50;99.90;7.60;103315.00;;;;5036596;28;20590;-62
2022/01/22 07:03:09;;;;;;;7.40;5.83;;;7.40;99.90;7.40;103309.00;;;;5036141;28;20561;-63
2022/01/22 07:05:35;;;;;;;4.40;4.00;;;7.30;99.90;7.50;103312.00;;;;5036011;28;20178;-62
2022/01/22 07:08:00;;;;;;;2.93;1.50;;;7.40;99.90;7.10;103300.00;;;;5036098;28;20178;-62
2022/01/22 07:10:26;;;;;;;10.90;7.07;;;7.30;99.90;7.20;103309.00;;;;5035768;28;20643;-63
2022/01/22 07:12:52;;;;;;;8.63;5.33;;;7.20;99.90;7.10;103312.00;;;;5035050;28;20563;-63
2022/01/22 07:15:19;;;;;;;0.50;0.50;;;7.10;99.90;7.00;103316.00;;;;5035633;28;20551;-64
2022/01/22 07:17:46;;;;;;;3.20;2.77;;;7.10;99.90;6.90;103312.00;;;;5035753;28;20632;-64
2022/01/22 07:20:26;;;;;;;1.63;1.53;;;7.20;99.90;6.90;103311.00;;;;5035585;28;20205;-63
2022/01/22 07:22:59;;;;;;;0.40;0.40;;;7.10;99.90;7.50;103318.00;;;;5034249;28;20182;-61
2022/01/22 07:25:26;;;;;;;2.93;2.50;;;7.30;99.90;6.90;103314.00;;;;5035431;28;20279;-62
2022/01/22 07:27:55;;;;;;;3.63;3.33;;;7.10;99.90;6.70;103320.00;;;;5035951;28;20644;-63
2022/01/22 07:30:48;;;;;;;7.13;4.33;;;6.90;99.90;6.90;103321.00;;;;5034688;28;20194;-64
2022/01/22 07:33:14;;;;;;;2.70;2.50;;;6.90;99.90;6.80;103307.00;;;;5036360;28;20268;-63
2022/01/22 07:35:40;;;;;;;7.60;6.47;;;6.90;99.90;7.10;103320.00;;;;5034701;28;20269;-64
2022/01/22 07:38:09;;;;;;;1.83;1.73;;;6.90;99.90;6.80;103321.00;;;;5036076;28;20277;-64
2022/01/22 07:40:36;;;;;;;7.37;5.20;;;6.90;99.90;6.80;103306.00;;;;5035379;28;20169;-63
2022/01/22 07:43:02;;;;;;;2.07;1.97;;;6.80;99.90;6.80;103327.00;;;;5036253;28;20193;-64
2022/01/22 07:45:30;;;;;;;6.70;4.83;;;6.80;99.90;6.90;103312.00;;;;5034788;28;20209;-64
2022/01/22 07:47:59;;;;;;;1.03;0.93;;;6.80;99.90;6.60;103321.00;;;;5035767;28;20171;-64
2022/01/22 07:50:25;;;;;;;1.37;1.37;;;6.80;99.90;7.30;103335.00;;;;5036392;28;20268;-64
2022/01/22 07:52:51;;;;;;;0.20;0.20;;;6.90;99.90;7.60;103314.00;;;;5034133;28;20256;-65
2022/01/22 07:55:21;;;;;;;0.97;0.97;;;7.30;99.90;7.70;103319.00;;;;5016607;28;20183;-66
2022/01/22 07:57:51;;;;;;;4.77;4.47;;;7.40;99.90;7.80;103326.00;;;;5033188;28;20182;-65
2022/01/22 08:00:17;;;;;;;1.97;1.60;;;7.50;99.90;8.20;103322.00;;;;5033565;28;20179;-64
2022/01/22 08:02:43;;;;;;;0.80;0.80;;;7.70;99.90;7.20;103309.00;;;;5016773;28;20244;-64
2022/01/22 08:05:10;;;;;;;3.70;3.37;;;7.50;99.90;7.60;103285.00;;;;5016873;28;20179;-64
2022/01/22 08:07:36;;;;;;;4.20;3.90;;;7.40;99.90;7.50;103325.00;;;;5035997;28;20179;-63
2022/01/22 08:10:04;;;;;;;0.60;0.60;;;7.40;99.90;7.50;103282.00;;;;5034964;28;20209;-63
2022/01/22 08:12:29;;;;;;;6.67;4.20;;;7.40;99.90;7.40;103338.00;;;;5034633;28;20681;-63
2022/01/22 08:14:55;;;;;;;0.63;0.60;;;7.30;99.90;7.50;103338.00;;;;5034332;28;20168;-63
2022/01/22 08:17:21;;;;;;;0.83;0.77;;;7.30;99.90;7.70;103342.00;;;;5035543;28;20264;-63
2022/01/22 08:19:47;;;;;;;0.70;0.70;;;7.40;99.90;8.10;103347.00;;;;5034219;28;20269;-63
2022/01/22 08:22:13;;;;;;;0.97;0.97;;;7.70;99.90;8.30;103338.00;;;;5034476;28;20264;-63
2022/01/22 08:24:39;;;;;;;0.30;0.30;;;7.90;99.90;8.40;103300.00;;;;5034435;28;20175;-63
2022/01/22 08:29:40;;;;;;;1.23;1.13;;;8.10;99.90;8.60;103338.00;;;;5034027;28;20319;-63
2022/01/22 08:37:57;;;;;;;2.57;1.90;;;8.20;99.90;7.30;103323.00;;;;5034130;28;20224;-63
2022/01/22 08:40:23;;;;;;;0.40;0.40;;;7.70;99.90;7.60;103274.00;;;;5050079;28;20643;-64
2022/01/22 08:42:50;;;;;;;0.30;0.30;;;7.60;99.90;8.00;103325.00;;;;5035098;28;20185;-64
2022/01/22 08:45:17;;;;;;;8.23;5.63;;;7.70;99.90;8.10;103319.00;;;;5034124;28;20179;-63
2022/01/22 08:47:43;;;;;;;6.43;5.03;;;7.90;99.90;7.30;103320.00;;;;5035035;28;20167;-64
2022/01/22 08:50:10;;;;;;;0.30;0.30;;;7.50;99.90;8.10;103335.00;;;;5034699;28;20178;-64
2022/01/22 08:52:36;;;;;;;1.80;1.73;;;7.70;99.90;7.40;103327.00;;;;5034949;28;20211;-64
2022/01/22 08:55:06;;;;;;;2.30;2.17;;;7.50;99.90;7.30;103334.00;;;;5033616;28;20179;-63
2022/01/22 08:57:32;;;;;;;1.73;1.63;;;7.40;99.90;6.50;103333.00;;;;5033895;28;20172;-62
2022/01/22 09:00:01;;;;;;;3.50;3.20;;;7.00;99.90;6.30;103327.00;;;;5032928;28;20368;-62
2022/01/22 09:02:27;;;;;;;3.67;2.67;;;6.80;99.90;6.60;103351.00;;;;5034334;28;20187;-62
2022/01/22 09:04:54;;;;;;;2.30;2.20;;;6.80;99.90;6.30;103346.00;;;;5034531;28;20179;-62
2022/01/22 09:07:20;;;;;;;2.20;2.10;;;6.70;99.90;6.60;103357.00;;;;5032972;28;20518;-62
2022/01/22 09:09:48;;;;;;;6.97;4.67;;;6.80;99.90;6.50;103324.00;;;;5034715;28;20174;-62
2022/01/22 09:12:15;;;;;;;0.67;0.67;;;6.80;99.90;6.20;103359.00;;;;5033591;28;20203;-62
2022/01/22 09:14:41;;;;;;;1.10;1.00;;;6.70;99.90;6.50;103359.00;;;;5034204;28;20181;-62
2022/01/22 09:17:08;;;;;;;4.20;2.33;;;6.70;99.90;6.70;103361.00;;;;5033607;28;20173;-63
2022/01/22 09:19:35;;;;;;;6.53;4.90;;;6.80;99.90;7.10;103354.00;;;;5032922;28;20170;-63
2022/01/22 09:22:04;;;;;;;1.30;1.30;;;6.90;99.90;6.50;103372.00;;;;5033521;28;20178;-62
2022/01/22 09:24:30;;;;;;;8.23;4.80;;;6.90;99.90;7.10;103359.00;;;;5033292;28;20171;-62
2022/01/22 09:27:05;;;;;;;3.50;2.73;;;7.10;99.90;6.80;103375.00;;;;5032918;28;20179;-62
2022/01/22 09:29:31;;;;;;;1.20;1.20;;;7.00;99.90;7.20;103343.00;;;;5032543;28;20206;-62
2022/01/22 09:31:58;;;;;;;0.90;0.90;;;7.10;99.90;7.30;103335.00;;;;5032612;28;20214;-62
2022/01/22 09:34:26;;;;;;;0.30;0.30;;;7.30;99.90;7.70;103390.00;;;;5033592;28;20631;-62
2022/01/22 09:36:52;;;;;;;1.63;1.53;;;7.50;99.90;7.80;103393.00;;;;5033957;28;20180;-63
2022/01/22 09:39:23;;;;;;;4.20;2.87;;;7.60;99.90;7.80;103387.00;;;;5033548;28;20186;-62
2022/01/22 09:41:50;;;;;;;3.63;3.33;;;7.60;99.90;7.80;103386.00;;;;5033736;28;20672;-62
2022/01/22 09:44:21;;;;;;;7.73;2.17;;;7.60;99.90;7.00;103390.00;;;;5028360;28;20193;-62
2022/01/22 09:46:50;;;;;;;1.57;1.53;;;7.40;99.90;6.70;103386.00;;;;5032729;28;20189;-62
2022/01/22 09:49:21;;;;;;;4.27;3.93;;;7.10;99.90;7.30;103390.00;;;;5033556;28;20193;-62
2022/01/22 09:51:48;;;;;;;7.03;3.83;;;7.20;99.90;7.50;103413.00;;;;5032971;28;20658;-63
2022/01/22 09:54:14;;;;;;;5.33;2.17;;;7.40;99.90;6.90;103410.00;;;;5033616;28;20175;-62
2022/01/22 09:56:41;;;;;;;5.00;3.50;;;7.20;99.90;6.90;103420.00;;;;5033212;28;20182;-67
2022/01/22 09:59:10;;;;;;;3.40;2.73;;;7.20;99.90;6.60;103416.00;;;;5031208;28;20195;-62
2022/01/22 10:01:41;;;;;;;4.80;4.30;;;7.00;99.90;6.80;103418.00;;;;5031768;28;20208;-62
2022/01/22 10:04:08;;;;;;;6.63;3.17;;;7.00;99.90;6.60;103411.00;;;;5032754;28;20245;-62
2022/01/22 10:06:49;;;;;;;12.43;7.53;;;6.90;99.90;6.60;103411.00;;;;5029362;28;20241;-62
2022/01/22 10:09:27;;;;;;;2.57;2.07;;;6.90;99.90;7.20;103414.00;;;;5033242;28;20179;-65
2022/01/22 10:12:16;;;;;;;15.30;7.27;;;7.20;99.90;6.80;103416.00;;;;5031693;28;20195;-63
2022/01/22 10:15:10;;;;;;;9.50;7.93;;;7.20;99.90;7.00;103432.00;;;;5033441;28;20197;-63
2022/01/22 10:17:48;;;;;;;8.47;5.90;;;7.20;99.90;7.40;103421.00;;;;5033100;28;20189;-64
2022/01/22 10:20:23;;;;;;;2.03;1.83;;;7.30;99.90;7.60;103385.00;;;;5010972;28;20234;-63
2022/01/22 10:35:47;;;;;;;7.43;3.80;;;7.10;99.90;7.30;103451.00;;;;5065757;28;20205;-64
2022/01/22 10:38:16;;;;;;;4.33;3.33;;;7.20;99.90;7.20;103442.00;;;;5049977;28;20185;-64
2022/01/22 10:40:42;;;;;;;3.40;2.90;;;7.30;99.90;7.40;103390.00;;;;5064851;28;20233;-65
2022/01/22 10:44:00;;;;;;;4.17;3.97;;;7.40;99.90;7.50;103400.00;;;;5050011;28;20198;-64
2022/01/22 10:48:59;;;;;;;0.43;0.43;;;7.70;99.90;8.30;103439.00;;;;5050221;28;20265;-64
2022/01/22 10:51:28;;;;;;;2.20;2.07;;;7.90;99.90;8.20;103436.00;;;;5050347;28;20206;-62
2022/01/22 10:54:02;;;;;;;2.37;2.17;;;8.10;99.90;7.90;103428.00;;;;5065679;28;20630;-64
2022/01/22 10:56:32;;;;;;;0.87;0.87;;;8.00;99.90;8.40;103399.00;;;;5038493;28;20273;-62
2022/01/22 10:59:06;;;;;;;3.67;3.43;;;8.10;99.90;8.10;103430.00;;;;5050558;28;20187;-63
2022/01/22 11:01:55;;;;;;;3.87;3.53;;;8.10;99.90;7.90;103378.00;;;;5050028;28;20674;-66
2022/01/22 11:04:28;;;;;;;3.67;1.43;;;8.10;99.90;7.40;103418.00;;;;5032655;28;20640;-63
2022/01/22 11:07:05;;;;;;;2.30;2.10;;;7.70;99.90;7.70;103386.00;;;;5049863;28;20182;-63
2022/01/22 11:09:33;;;;;;;0.77;0.77;;;7.70;99.90;8.20;103433.00;;;;5049569;28;20556;-64
2022/01/22 11:12:04;;;;;;;1.70;1.60;;;8.00;99.90;7.70;103424.00;;;;5048536;28;20214;-64
2022/01/22 11:14:34;;;;;;;1.80;1.20;;;7.90;99.90;8.20;103412.00;;;;5039763;28;20186;-63
2022/01/22 11:17:00;;;;;;;0.20;0.20;;;8.00;99.90;8.30;103421.00;;;;5041135;28;20616;-63
2022/01/22 11:19:33;;;;;;;0.70;0.70;;;8.10;99.90;8.20;103421.00;;;;5064573;28;20182;-65
2022/01/22 11:22:14;;;;;;;1.07;1.00;;;8.20;99.90;8.40;103408.00;;;;5049211;28;20249;-65
2022/01/22 11:24:48;;;;;;;0.43;0.43;;;8.10;99.90;8.40;103374.00;;;;5063437;28;20177;-64
2022/01/22 11:27:17;;;;;;;1.80;1.80;;;8.30;99.90;8.80;103395.00;;;;5029712;28;20185;-64
2022/01/22 11:29:54;;;;;;;5.67;3.97;;;8.50;99.90;8.30;103399.00;;;;5028854;28;20168;-64
2022/01/22 11:32:27;;;;;;;5.57;3.37;;;8.20;99.90;8.10;103404.00;;;;5029433;28;20227;-63
2022/01/22 11:34:58;;;;;;;0.50;0.50;;;8.20;99.90;8.20;103395.00;;;;5028637;28;20179;-64
2022/01/22 11:37:49;;;;;;;0.30;0.30;;;8.20;99.90;8.30;103402.00;;;;5028310;28;20206;-64
2022/01/22 11:40:19;;;;;;;0.70;0.70;;;8.30;99.90;8.90;103417.00;;;;5027967;28;20709;-64
2022/01/22 11:43:08;;;;;;;0.80;0.80;;;8.40;99.90;8.20;103420.00;;;;5025477;28;20183;-64
2022/01/22 11:45:46;;;;;;;4.53;4.00;;;8.30;99.90;8.20;103418.00;;;;5035038;28;20187;-64
2022/01/22 11:48:26;;;;;;;9.20;3.10;;;8.20;99.90;6.90;103389.00;;;;5035751;28;20190;-63
2022/01/22 11:50:59;;;;;;;1.63;1.17;;;7.60;99.90;7.00;103394.00;;;;5051592;28;20208;-63
2022/01/22 11:53:34;;;;;;;8.23;7.43;;;7.30;99.90;7.60;103395.00;;;;5051024;28;20179;-63
2022/01/22 11:56:09;;;;;;;2.60;2.40;;;7.50;99.90;7.20;103387.00;;;;5035894;28;20184;-63
2022/01/22 11:58:56;;;;;;;1.43;1.43;;;7.30;99.90;7.10;103397.00;;;;5035980;28;20216;-63
2022/01/22 12:01:37;;;;;;;3.40;3.20;;;7.30;99.90;6.90;103390.00;;;;5033271;28;20198;-64
2022/01/22 12:04:05;;;;;;;7.07;6.07;;;7.10;99.90;6.80;103359.00;;;;5030901;28;20639;-64
2022/01/22 12:06:31;;;;;;;1.20;1.13;;;7.10;99.90;6.30;103346.00;;;;5050896;28;20222;-64
2022/01/22 12:09:11;;;;;;;2.70;2.50;;;6.80;99.90;6.80;103385.00;;;;5050409;28;20202;-63
2022/01/22 12:14:54;;;;;;;4.23;3.27;;;7.00;99.90;6.70;103368.00;;;;5034267;28;20213;-63
2022/01/22 12:21:30;;;;;;;4.93;4.13;;;7.10;99.90;7.20;103367.00;;;;5033992;28;20187;-64
2022/01/22 12:23:31;;;;;;;0.93;0.93;;;7.30;99.90;6.70;103327.00;;;;5032557;28;20545;-64
2022/01/22 12:26:00;;;;;;;3.17;2.93;;;7.10;99.90;7.00;103364.00;;;;5026844;28;20225;-63
2022/01/22 12:28:44;;;;;;;5.17;4.67;;;7.10;99.90;6.90;103360.00;;;;5021396;28;20182;-62
2022/01/22 12:31:21;;;;;;;2.30;2.10;;;7.20;99.90;6.90;103368.00;;;;5050268;28;20216;-62
2022/01/22 12:33:54;;;;;;;1.83;1.37;;;7.10;99.90;6.90;103364.00;;;;5033834;28;20639;-63
2022/01/22 12:36:27;;;;;;;4.07;3.70;;;7.20;99.90;6.50;103366.00;;;;5045198;28;20536;-63
2022/01/22 12:39:15;;;;;;;4.37;3.97;;;7.00;99.90;7.30;103371.00;;;;5029986;28;20183;-63
2022/01/22 12:41:57;;;;;;;2.37;2.27;;;7.20;99.90;7.00;103368.00;;;;5035001;28;20217;-62
2022/01/22 12:44:36;;;;;;;6.70;4.50;;;7.20;99.90;7.00;103373.00;;;;5034289;28;20213;-63
2022/01/22 12:47:12;;;;;;;1.43;1.33;;;7.20;99.90;7.10;103335.00;;;;5049061;28;20179;-62
2022/01/22 12:49:43;;;;;;;8.70;7.23;;;7.30;99.90;7.60;103379.00;;;;5049857;28;20705;-63
2022/01/22 12:52:18;;;;;;;11.17;6.63;;;7.50;99.90;7.50;103385.00;;;;5033856;28;20224;-63
2022/01/22 12:55:01;;;;;;;7.43;6.40;;;7.60;99.90;7.10;103386.00;;;;5033783;28;20185;-62
2022/01/22 12:57:42;;;;;;;4.13;3.93;;;7.40;99.90;7.20;103384.00;;;;5034600;28;20182;-63
2022/01/22 13:00:15;;;;;;;8.53;5.23;;;7.30;99.90;6.80;103382.00;;;;5033763;28;20197;-63
2022/01/22 13:02:58;;;;;;;6.60;6.13;;;7.20;99.90;6.80;103376.00;;;;5034376;28;20190;-63
2022/01/22 13:05:31;;;;;;;17.90;11.17;;;7.20;99.90;7.30;103363.00;;;;5032470;28;20256;-63
2022/01/22 13:08:02;;;;;;;9.80;7.97;;;7.30;99.90;7.20;103372.00;;;;5028028;28;20666;-64
2022/01/22 13:10:38;;;;;;;3.00;2.67;;;7.40;99.90;7.80;103376.00;;;;5018286;28;20188;-64
2022/01/22 13:13:06;;;;;;;2.90;2.67;;;7.60;99.90;7.90;103365.00;;;;5013465;28;20199;-63
2022/01/22 13:15:33;;;;;;;6.60;5.87;;;7.80;99.90;8.30;103338.00;;;;5013098;28;20278;-63